createdAt,value
2019-02-08T00:02:46.779Z,75.75
2019-02-08T00:04:46.779Z,76.01
2019-02-08T00:08:46.776Z,75.78
2019-02-08T00:10:47.470Z,75.62
2019-02-08T00:14:46.761Z,75.92
2019-02-08T00:16:46.774Z,75.84
2019-02-08T00:20:46.769Z,75.27
2019-02-08T00:22:46.803Z,75.22
2019-02-08T00:26:46.790Z,75.04
2019-02-08T00:28:46.762Z,75.93
2019-02-08T00:32:50.448Z,75.71
2019-02-08T00:34:46.783Z,76.07
2019-02-08T00:38:46.826Z,75.29
2019-02-08T00:40:46.811Z,76.02
2019-02-08T00:44:46.770Z,75.15
2019-02-08T00:46:46.790Z,75.80
2019-02-08T00:50:46.827Z,75.14
2019-02-08T00:52:47.677Z,75.35
2019-02-08T00:56:46.946Z,75.58
2019-02-08T00:58:46.750Z,75.62
2019-02-08T01:02:46.803Z,75.94
2019-02-08T01:04:46.797Z,76.08
2019-02-08T01:08:46.812Z,75.47
2019-02-08T01:10:46.947Z,75.47
2019-02-08T01:14:46.836Z,75.41
2019-02-08T01:16:46.790Z,75.99
2019-02-08T01:20:46.811Z,75.22
2019-02-08T01:22:46.989Z,75.18
2019-02-08T01:26:51.307Z,75.29
2019-02-08T01:28:46.912Z,75.46
2019-02-08T01:32:46.840Z,76.04
2019-02-08T01:34:46.819Z,75.76
2019-02-08T01:38:46.771Z,75.69
2019-02-08T01:40:46.813Z,75.68
2019-02-08T01:44:46.839Z,75.64
2019-02-08T01:46:46.848Z,75.95
2019-02-08T01:50:46.841Z,75.66
2019-02-08T01:52:46.934Z,75.73
2019-02-08T01:56:48.720Z,75.94
2019-02-08T01:58:46.845Z,75.58
2019-02-08T02:02:46.790Z,75.78
2019-02-08T02:04:51.854Z,75.65
2019-02-08T02:08:46.823Z,75.61
2019-02-08T02:10:46.870Z,75.92
2019-02-08T02:14:46.797Z,75.63
2019-02-08T02:16:46.849Z,75.44
2019-02-08T02:20:51.549Z,75.42
2019-02-08T02:22:46.822Z,76.11
2019-02-08T02:26:46.833Z,75.93
2019-02-08T02:28:46.863Z,75.47
2019-02-08T02:32:49.538Z,75.54
2019-02-08T02:34:46.818Z,75.72
2019-02-08T02:38:51.826Z,75.60
2019-02-08T02:40:46.827Z,75.70
2019-02-08T02:44:46.856Z,75.95
2019-02-08T02:46:46.862Z,76.05
2019-02-08T02:50:46.972Z,76.06
2019-02-08T02:52:46.850Z,75.46
2019-02-08T02:56:47.044Z,75.93
2019-02-08T02:58:46.981Z,76.33
2019-02-08T03:02:46.805Z,75.96
2019-02-08T03:06:46.887Z,75.70
2019-02-08T03:08:51.305Z,75.53
2019-02-08T03:12:46.816Z,76.09
2019-02-08T03:16:46.899Z,75.62
2019-02-08T03:18:47.017Z,75.86
2019-02-08T03:22:46.863Z,76.11
2019-02-08T03:24:46.897Z,75.90
2019-02-08T03:28:46.890Z,75.70
2019-02-08T03:30:47.030Z,75.99
2019-02-08T03:34:46.851Z,76.33
2019-02-08T03:36:46.946Z,76.09
2019-02-08T03:40:46.823Z,75.95
2019-02-08T03:42:46.988Z,76.16
2019-02-08T03:46:46.996Z,75.53
2019-02-08T03:48:46.856Z,75.59
2019-02-08T03:52:47.072Z,75.89
2019-02-08T03:54:49.654Z,76.12
2019-02-08T03:58:46.854Z,75.69
2019-02-08T04:00:51.830Z,76.19
2019-02-08T04:04:47.017Z,75.75
2019-02-08T04:06:46.912Z,76.03
2019-02-08T04:10:46.935Z,76.16
2019-02-08T04:12:46.967Z,76.28
2019-02-08T04:16:46.987Z,75.55
2019-02-08T04:18:46.982Z,76.20
2019-02-08T04:22:46.992Z,75.90
2019-02-08T04:24:46.896Z,76.29
2019-02-08T04:28:47.094Z,75.94
2019-02-08T04:30:47.037Z,75.87
2019-02-08T04:34:46.898Z,76.26
2019-02-08T04:36:47.007Z,75.73
2019-02-08T04:40:47.064Z,76.36
2019-02-08T04:42:46.891Z,75.90
2019-02-08T04:46:47.066Z,76.45
2019-02-08T04:48:47.100Z,75.76
2019-02-08T04:52:47.096Z,76.36
2019-02-08T04:54:46.909Z,75.97
2019-02-08T04:58:51.490Z,76.41
2019-02-08T05:00:51.512Z,76.31
2019-02-08T05:04:47.062Z,76.20
2019-02-08T05:06:49.610Z,76.17
2019-02-08T05:10:46.991Z,76.40
2019-02-08T05:12:46.982Z,76.43
2019-02-08T05:16:47.830Z,76.61
2019-02-08T05:18:47.026Z,76.20
2019-02-08T05:22:47.038Z,76.53
2019-02-08T05:24:46.898Z,76.58
2019-02-08T05:28:46.971Z,76.30
2019-02-08T05:30:46.878Z,76.28
2019-02-08T05:34:46.852Z,75.93
2019-02-08T05:36:46.895Z,76.78
2019-02-08T05:40:47.056Z,76.39
2019-02-08T05:42:47.089Z,76.54
2019-02-08T05:46:47.008Z,76.17
2019-02-08T05:48:46.989Z,76.28
2019-02-08T05:52:47.043Z,76.47
2019-02-08T05:54:54.216Z,76.93
2019-02-08T05:58:46.932Z,77.05
2019-02-08T06:00:47.088Z,76.28
2019-02-08T06:04:46.878Z,76.48
2019-02-08T06:06:47.074Z,76.97
2019-02-08T06:10:46.864Z,77.05
2019-02-08T06:12:46.888Z,76.56
2019-02-08T06:16:47.089Z,76.69
2019-02-08T06:18:46.868Z,76.70
2019-02-08T06:22:46.894Z,76.91
2019-02-08T06:24:46.860Z,76.64
2019-02-08T06:28:46.870Z,77.23
2019-02-08T06:30:46.878Z,76.65
2019-02-08T06:34:46.927Z,77.21
2019-02-08T06:36:46.900Z,76.43
2019-02-08T06:40:46.904Z,76.76
2019-02-08T06:42:46.913Z,76.57
2019-02-08T06:46:46.862Z,76.58
2019-02-08T06:48:46.862Z,76.95
2019-02-08T06:52:51.564Z,77.27
2019-02-08T06:54:46.912Z,76.73
2019-02-08T06:58:46.940Z,76.47
2019-02-08T07:00:46.912Z,77.26
2019-02-08T07:04:46.901Z,76.47
2019-02-08T07:06:46.880Z,77.07
2019-02-08T07:10:46.939Z,76.62
2019-02-08T07:12:46.898Z,77.15
2019-02-08T07:16:46.902Z,77.04
2019-02-08T07:18:46.910Z,76.79
2019-02-08T07:22:46.949Z,77.24
2019-02-08T07:24:46.896Z,77.00
2019-02-08T07:28:51.378Z,77.36
2019-02-08T07:30:46.910Z,77.49
2019-02-08T07:34:46.898Z,77.22
2019-02-08T07:36:46.931Z,76.91
2019-02-08T07:40:46.937Z,76.50
2019-02-08T07:42:46.898Z,77.61
2019-02-08T07:46:46.914Z,77.54
2019-02-08T07:48:46.953Z,77.57
2019-02-08T07:52:46.928Z,77.00
2019-02-08T07:54:46.922Z,77.42
2019-02-08T07:58:46.919Z,76.67
2019-02-08T08:00:47.006Z,77.03
2019-02-08T08:04:46.954Z,77.63
2019-02-08T08:06:46.939Z,77.11
2019-02-08T08:10:46.951Z,77.11
2019-02-08T08:12:46.930Z,77.08
2019-02-08T08:16:51.896Z,76.94
2019-02-08T08:18:52.106Z,76.83
2019-02-08T08:22:46.892Z,77.28
2019-02-08T08:24:46.956Z,77.68
2019-02-08T08:28:46.963Z,77.73
2019-02-08T08:30:46.946Z,77.50
2019-02-08T08:34:46.891Z,77.34
2019-02-08T08:36:46.932Z,77.18
2019-02-08T08:40:46.934Z,77.53
2019-02-08T08:42:46.926Z,77.68
2019-02-08T08:48:46.944Z,77.73
2019-02-08T08:50:46.966Z,77.16
2019-02-08T08:54:46.904Z,77.66
2019-02-08T08:56:46.993Z,77.59
2019-02-08T09:00:46.958Z,77.25
2019-02-08T09:02:46.960Z,77.27
2019-02-08T09:06:46.967Z,77.86
2019-02-08T09:08:46.965Z,77.22
2019-02-08T09:12:46.940Z,77.08
2019-02-08T09:14:46.921Z,77.59
2019-02-08T09:18:52.137Z,77.12
2019-02-08T09:20:46.974Z,77.46
2019-02-08T09:24:46.943Z,77.32
2019-02-08T09:26:46.947Z,77.46
2019-02-08T09:39:42.376Z,77.41
2019-02-08T09:41:42.370Z,77.44
2019-02-08T09:43:42.359Z,77.40
2019-02-08T09:45:42.379Z,77.38
2019-02-08T09:47:42.369Z,77.39
2019-02-08T09:49:42.372Z,77.21
2019-02-08T09:51:47.206Z,77.62
2019-02-08T09:53:42.355Z,77.94
2019-02-08T09:55:42.340Z,77.37
2019-02-08T09:57:42.383Z,78.03
2019-02-08T09:59:42.346Z,77.67
2019-02-08T10:01:42.383Z,77.59
2019-02-08T10:03:42.388Z,77.49
2019-02-08T10:05:42.351Z,77.65
2019-02-08T10:07:42.358Z,77.77
2019-02-08T10:09:42.368Z,77.86
2019-02-08T10:11:42.351Z,77.78
2019-02-08T10:13:42.375Z,77.36
2019-02-08T10:15:42.391Z,77.32
2019-02-08T10:17:42.368Z,77.89
2019-02-08T10:19:42.344Z,77.74
2019-02-08T10:21:42.411Z,77.58
2019-02-08T10:23:42.363Z,77.69
2019-02-08T10:25:42.361Z,77.49
2019-02-08T10:27:42.404Z,77.76
2019-02-08T10:29:42.342Z,77.91
2019-02-08T10:31:42.400Z,77.72
2019-02-08T10:33:42.381Z,77.99
2019-02-08T10:35:47.014Z,77.82
2019-02-08T10:37:42.361Z,77.60
2019-02-08T10:39:42.410Z,77.79
2019-02-08T10:41:42.359Z,77.76
2019-02-08T10:43:42.365Z,77.83
2019-02-08T10:45:42.400Z,78.23
2019-02-08T10:47:42.376Z,77.87
2019-02-08T10:49:42.376Z,77.69
2019-02-08T10:51:42.430Z,78.16
2019-02-08T10:53:42.347Z,77.95
2019-02-08T10:55:42.354Z,77.66
2019-02-08T10:57:42.616Z,78.07
2019-02-08T10:59:42.369Z,78.20
2019-02-08T11:01:42.375Z,78.25
2019-02-08T11:03:42.408Z,78.09
2019-02-08T11:05:42.363Z,78.03
2019-02-08T11:07:42.374Z,78.35
2019-02-08T11:09:42.408Z,77.96
2019-02-08T11:11:42.381Z,78.00
2019-02-08T11:13:42.371Z,77.80
2019-02-08T11:15:42.480Z,78.26
2019-02-08T11:17:42.382Z,77.95
2019-02-08T11:19:42.528Z,78.09
2019-02-08T11:22:27.527Z,77.92
2019-02-08T11:24:27.561Z,78.02
2019-02-08T11:26:24.535Z,78.04
2019-02-08T11:28:22.577Z,78.17
2019-02-08T11:30:22.592Z,78.02
2019-02-08T11:32:42.580Z,77.98
2019-02-08T11:34:22.625Z,78.08
2019-02-08T11:36:22.582Z,78.25
2019-02-08T11:38:22.571Z,78.24
2019-02-08T11:40:22.607Z,78.09
2019-02-08T11:42:22.596Z,78.48
2019-02-08T11:44:22.578Z,78.39
2019-02-08T11:46:22.582Z,77.98
2019-02-08T11:48:22.563Z,78.26
2019-02-08T11:50:22.573Z,78.12
2019-02-08T11:52:22.598Z,78.29
2019-02-08T11:54:22.545Z,78.11
2019-02-08T11:56:29.759Z,78.22
2019-02-08T11:58:22.630Z,78.25
2019-02-08T12:00:22.594Z,78.40
2019-02-08T12:02:24.815Z,78.18
2019-02-08T12:04:22.602Z,78.24
2019-02-08T12:06:24.053Z,78.45
2019-02-08T12:08:22.583Z,78.13
2019-02-08T12:10:22.659Z,78.16
2019-02-08T12:12:22.576Z,78.32
2019-02-08T12:14:22.558Z,77.96
2019-02-08T12:16:22.611Z,77.93
2019-02-08T12:18:22.610Z,78.47
2019-02-08T12:20:22.613Z,78.45
2019-02-08T12:22:22.620Z,78.07
2019-02-08T12:24:22.581Z,78.44
2019-02-08T12:26:22.584Z,78.73
2019-02-08T12:28:22.644Z,78.41
2019-02-08T12:30:22.614Z,78.42
2019-02-08T12:32:22.582Z,78.35
2019-02-08T12:34:27.168Z,78.67
2019-02-08T12:36:27.193Z,78.22
2019-02-08T12:38:22.585Z,78.34
2019-02-08T12:40:22.622Z,78.30
2019-02-08T12:42:22.578Z,78.21
2019-02-08T12:44:22.604Z,78.81
2019-02-08T12:50:22.585Z,78.14
2019-02-08T12:52:27.010Z,78.35
2019-02-08T12:56:22.573Z,78.58
2019-02-08T12:58:22.940Z,78.69
2019-02-08T13:02:22.584Z,78.57
2019-02-08T13:04:22.578Z,78.56
2019-02-08T13:08:22.614Z,78.62
2019-02-08T13:10:22.598Z,78.71
2019-02-08T13:14:22.584Z,78.83
2019-02-08T13:16:22.609Z,78.61
2019-02-08T13:20:27.059Z,78.50
2019-02-08T13:22:22.610Z,78.57
2019-02-08T13:26:22.610Z,78.47
2019-02-08T13:28:22.636Z,78.84
2019-02-08T13:32:22.630Z,78.69
2019-02-08T13:34:22.629Z,78.12
2019-02-08T13:38:22.610Z,78.45
2019-02-08T13:40:23.390Z,78.88
2019-02-08T13:44:22.603Z,78.27
2019-02-08T13:46:22.629Z,78.66
2019-02-08T13:50:24.949Z,78.41
2019-02-08T13:52:27.060Z,78.47
2019-02-08T13:57:07.305Z,77.82
2019-02-08T13:59:07.344Z,78.43
2019-02-08T14:01:07.450Z,78.26
2019-02-08T14:03:10.861Z,78.55
2019-02-08T14:05:08.864Z,78.78
2019-02-08T14:08:06.503Z,79.16
2019-02-08T14:10:06.541Z,78.65
2019-02-08T14:12:06.595Z,78.45
2019-02-08T14:14:06.627Z,78.98
2019-02-08T14:16:06.943Z,78.58
2019-02-08T14:18:27.956Z,78.72
2019-02-08T14:20:27.929Z,78.78
2019-02-08T14:22:30.214Z,78.68
2019-02-08T14:24:28.388Z,78.80
2019-02-08T14:26:29.167Z,78.73
2019-02-08T15:20:52.195Z,78.54
2019-02-08T15:22:52.159Z,78.43
2019-02-08T15:24:52.165Z,78.67
2019-02-08T15:26:52.388Z,78.53
2019-02-08T15:28:57.086Z,78.83
2019-02-08T15:31:03.710Z,78.61
2019-02-08T15:32:56.639Z,78.52
2019-02-08T15:34:56.061Z,79.14
2019-02-08T15:36:56.588Z,78.83
2019-02-08T15:38:52.191Z,79.03
2019-02-08T15:40:52.195Z,79.14
2019-02-08T15:42:56.519Z,78.66
2019-02-08T15:44:52.172Z,78.57
2019-02-08T15:46:56.656Z,78.72
2019-02-08T15:48:57.125Z,78.74
2019-02-08T15:50:52.212Z,78.80
2019-02-08T15:52:57.146Z,78.99
2019-02-08T15:54:52.156Z,78.69
2019-02-08T15:56:52.235Z,78.62
2019-02-08T15:58:55.955Z,78.74
2019-02-08T16:00:52.166Z,78.78
2019-02-08T16:02:52.232Z,78.87
2019-02-08T16:06:35.237Z,78.91
2019-02-08T16:08:35.201Z,78.97
2019-02-08T16:22:13.729Z,78.82
2019-02-08T16:24:13.824Z,78.85
2019-02-08T16:26:18.615Z,78.47
2019-02-08T16:28:19.550Z,78.99
2019-02-08T16:30:16.170Z,78.64
2019-02-08T16:32:21.107Z,78.62
2019-02-08T16:34:13.804Z,78.44
2019-02-08T16:37:03.530Z,78.79
2019-02-08T16:38:59.782Z,78.76
2019-02-08T16:40:59.759Z,78.61
2019-02-08T16:42:59.833Z,78.80
2019-02-08T16:44:59.755Z,78.52
2019-02-08T16:46:59.766Z,78.56
2019-02-08T16:48:59.801Z,78.71
2019-02-08T16:50:59.804Z,78.90
2019-02-08T16:52:59.756Z,79.12
2019-02-08T16:54:59.810Z,78.69
2019-02-08T16:57:04.767Z,78.53
2019-02-08T16:58:59.775Z,78.71
2019-02-08T17:00:59.809Z,78.63
2019-02-08T17:03:04.399Z,78.55
2019-02-08T17:04:59.782Z,78.73
2019-02-08T17:06:59.822Z,78.86
2019-02-08T17:08:59.832Z,78.66
2019-02-08T17:10:59.802Z,78.63
2019-02-08T17:12:59.827Z,78.93
2019-02-08T17:15:00.566Z,79.16
2019-02-08T17:16:59.789Z,78.27
2019-02-08T17:18:59.801Z,78.31
2019-02-08T17:21:00.718Z,78.16
2019-02-08T17:22:59.827Z,78.28
2019-02-08T17:24:59.847Z,78.38
2019-02-08T17:26:59.825Z,78.45
2019-02-08T17:28:59.792Z,78.55
2019-02-08T17:30:59.823Z,78.33
2019-02-08T17:32:59.789Z,78.52
2019-02-08T17:34:59.822Z,78.59
2019-02-08T17:36:59.819Z,78.74
2019-02-08T17:39:00.901Z,78.58
2019-02-08T17:41:22.556Z,78.46
2019-02-08T17:43:27.746Z,78.71
2019-02-08T17:45:26.996Z,78.47
2019-02-08T17:47:22.680Z,78.64
2019-02-08T17:49:22.620Z,78.72
2019-02-08T17:51:42.484Z,78.66
2019-02-08T17:53:47.890Z,78.73
2019-02-08T17:55:42.559Z,78.34
2019-02-08T17:57:42.709Z,78.78
2019-02-08T17:59:42.697Z,78.50
2019-02-08T18:02:07.770Z,78.59
2019-02-08T18:04:08.890Z,78.77
2019-02-08T18:06:07.792Z,79.11
2019-02-08T18:08:11.034Z,78.78
2019-02-08T18:10:10.833Z,78.74
2019-02-08T18:12:35.546Z,78.73
2019-02-08T18:14:35.756Z,78.81
2019-02-08T18:16:35.621Z,78.87
2019-02-08T18:18:38.020Z,78.73
2019-02-08T18:31:48.872Z,78.54
2019-02-08T18:33:48.689Z,78.78
2019-02-08T18:35:48.697Z,78.62
2019-02-08T18:37:48.851Z,78.75
2019-02-08T18:39:48.720Z,78.89
2019-02-08T18:41:48.716Z,78.59
2019-02-08T18:47:48.716Z,78.95
2019-02-08T18:49:48.720Z,78.93
2019-02-08T18:53:48.717Z,78.74
2019-02-08T18:55:48.699Z,78.68
2019-02-08T18:59:49.782Z,78.62
2019-02-08T19:01:48.840Z,78.93
2019-02-08T19:07:48.724Z,78.85
2019-02-08T19:09:48.731Z,78.89
2019-02-08T19:13:48.733Z,78.53
2019-02-08T19:15:48.748Z,78.56
2019-02-08T19:19:53.914Z,78.86
2019-02-08T19:21:48.877Z,78.82
2019-02-08T19:25:48.730Z,78.76
2019-02-08T19:27:48.752Z,78.74
2019-02-08T19:31:48.715Z,79.04
2019-02-08T19:33:48.732Z,78.81
2019-02-08T19:37:53.384Z,79.40
2019-02-08T19:39:49.722Z,78.98
2019-02-08T19:43:48.737Z,78.79
2019-02-08T19:45:48.738Z,78.77
2019-02-08T19:49:48.733Z,78.67
2019-02-08T19:51:48.747Z,78.66
2019-02-08T19:59:54.324Z,78.82
2019-02-08T20:01:53.928Z,78.94
2019-02-08T20:05:48.733Z,79.11
2019-02-08T20:07:53.928Z,79.21
2019-02-08T20:11:51.022Z,78.97
2019-02-08T20:13:48.742Z,79.11
2019-02-08T20:19:48.759Z,79.28
2019-02-08T20:21:53.983Z,79.08
2019-02-08T20:29:53.937Z,79.22
2019-02-08T20:31:54.311Z,79.24
2019-02-08T20:37:48.775Z,79.49
2019-02-08T20:39:48.765Z,79.16
2019-02-08T20:43:53.745Z,79.19
2019-02-08T20:45:53.953Z,79.40
2019-02-08T20:51:48.763Z,79.01
2019-02-08T20:53:48.769Z,79.32
2019-02-08T20:57:53.758Z,79.45
2019-02-08T20:59:48.764Z,79.56
2019-02-08T21:05:48.757Z,79.19
2019-02-08T21:07:48.765Z,79.54
2019-02-08T21:11:53.327Z,79.80
2019-02-08T21:13:52.391Z,79.27
2019-02-08T21:17:48.759Z,79.58
2019-02-08T21:19:53.953Z,79.56
2019-02-08T21:23:48.797Z,79.65
2019-02-08T21:25:51.741Z,79.61
2019-02-08T21:29:48.772Z,79.42
2019-02-08T21:31:48.767Z,79.43
2019-02-08T21:35:49.575Z,79.92
2019-02-08T21:37:48.772Z,79.84
2019-02-08T21:41:48.765Z,79.39
2019-02-08T21:43:53.437Z,79.69
2019-02-08T21:47:48.823Z,79.34
2019-02-08T21:49:48.820Z,79.52
2019-02-08T21:53:48.765Z,79.37
2019-02-08T21:55:48.782Z,79.95
2019-02-08T21:58:34.590Z,79.81
2019-02-08T22:00:34.529Z,79.79
2019-02-08T22:02:38.901Z,79.86
2019-02-08T22:04:34.565Z,79.78
2019-02-08T22:06:34.521Z,79.45
2019-02-08T22:09:14.503Z,79.44
2019-02-08T22:11:18.125Z,79.53
2019-02-08T22:13:15.318Z,79.79
2019-02-08T22:15:14.563Z,79.74
2019-02-08T22:17:14.485Z,79.69
2019-02-08T22:19:40.187Z,79.81
2019-02-08T22:21:41.392Z,79.68
2019-02-08T22:23:40.403Z,79.87
2019-02-08T22:25:38.158Z,79.81
2019-02-08T22:27:38.104Z,79.65
2019-02-08T22:29:38.146Z,79.61
2019-02-08T22:31:38.271Z,79.87
2019-02-08T22:33:38.122Z,79.59
2019-02-08T22:36:24.295Z,79.78
2019-02-08T22:38:29.772Z,79.96
2019-02-08T22:40:26.445Z,79.89
2019-02-08T22:42:24.314Z,79.79
2019-02-08T22:47:57.712Z,79.91
2019-02-08T22:49:57.694Z,79.66
2019-02-08T22:51:57.699Z,79.85
2019-02-08T22:53:57.700Z,79.72
2019-02-08T22:55:57.685Z,79.91
2019-02-08T22:57:57.690Z,80.00
2019-02-08T23:01:41.147Z,79.71
2019-02-08T23:03:41.125Z,79.87
2019-02-08T23:05:45.729Z,79.79
2019-02-08T23:07:41.165Z,79.69
2019-02-08T23:09:41.106Z,79.91
2019-02-08T23:11:41.121Z,79.53
2019-02-08T23:13:41.145Z,79.53
2019-02-08T23:15:45.166Z,79.94
2019-02-08T23:17:41.164Z,79.87
2019-02-08T23:19:41.179Z,79.81
2019-02-08T23:21:41.151Z,79.92
2019-02-08T23:23:41.163Z,79.66
2019-02-08T23:25:41.170Z,79.99
2019-02-08T23:27:41.182Z,79.87
2019-02-08T23:29:41.185Z,79.75
2019-02-08T23:31:41.199Z,79.85
2019-02-08T23:33:41.182Z,80.02
2019-02-08T23:35:46.126Z,80.04
2019-02-08T23:37:44.934Z,79.73
2019-02-08T23:39:41.176Z,79.91
2019-02-08T23:41:41.155Z,79.58
2019-02-08T23:43:41.199Z,79.68
2019-02-08T23:45:46.173Z,79.86
2019-02-08T23:47:41.201Z,79.95
2019-02-08T23:49:41.185Z,79.97
2019-02-08T23:51:41.165Z,79.69
2019-02-08T23:53:41.162Z,79.70
2019-02-08T23:55:41.176Z,79.69
2019-02-08T23:57:41.182Z,80.21
2019-02-08T23:59:41.167Z,79.77
